sensor_id;sensor_type;location;lat;lon;timestamp;pressure;altitude;pressure_sealevel;temperature;humidity
23433;BME280;41331;45.412;10.992;2023-08-06T00:01:13;99886.16;;;20.68;93.91
23433;BME280;41331;45.412;10.992;2023-08-06T00:03:42;99887.00;;;20.65;94.31
23433;BME280;41331;45.412;10.992;2023-08-06T00:06:10;99884.25;;;20.61;94.47
23433;BME280;41331;45.412;10.992;2023-08-06T00:08:37;99875.50;;;20.70;93.64
23433;BME280;41331;45.412;10.992;2023-08-06T00:11:05;99872.72;;;20.70;93.00
23433;BME280;41331;45.412;10.992;2023-08-06T00:13:32;99870.81;;;20.63;93.63
23433;BME280;41331;45.412;10.992;2023-08-06T00:16:12;99869.69;;;20.57;94.12
23433;BME280;41331;45.412;10.992;2023-08-06T00:18:40;99870.09;;;20.56;96.06
23433;BME280;41331;45.412;10.992;2023-08-06T00:21:08;99861.81;;;20.56;94.64
23433;BME280;41331;45.412;10.992;2023-08-06T00:23:40;99861.81;;;20.56;95.34
23433;BME280;41331;45.412;10.992;2023-08-06T00:26:07;99863.06;;;20.44;95.30
23433;BME280;41331;45.412;10.992;2023-08-06T00:28:35;99863.44;;;20.46;94.85
23433;BME280;41331;45.412;10.992;2023-08-06T00:31:02;99854.38;;;20.49;93.18
23433;BME280;41331;45.412;10.992;2023-08-06T00:33:29;99859.47;;;20.51;94.04
23433;BME280;41331;45.412;10.992;2023-08-06T00:35:57;99851.94;;;20.55;94.16
23433;BME280;41331;45.412;10.992;2023-08-06T00:38:24;99858.28;;;20.52;95.18
23433;BME280;41331;45.412;10.992;2023-08-06T00:40:52;99856.81;;;20.36;96.41
23433;BME280;41331;45.412;10.992;2023-08-06T00:43:20;99854.00;;;20.43;92.88
23433;BME280;41331;45.412;10.992;2023-08-06T00:45:48;99859.91;;;20.42;92.69
23433;BME280;41331;45.412;10.992;2023-08-06T00:48:15;99859.97;;;20.38;92.70
23433;BME280;41331;45.412;10.992;2023-08-06T00:50:43;99858.88;;;20.29;92.27
23433;BME280;41331;45.412;10.992;2023-08-06T00:53:11;99847.75;;;20.36;92.32
23433;BME280;41331;45.412;10.992;2023-08-06T00:55:43;99850.88;;;20.38;91.68
23433;BME280;41331;45.412;10.992;2023-08-06T00:58:12;99843.47;;;20.28;92.33
23433;BME280;41331;45.412;10.992;2023-08-06T01:00:41;99841.56;;;20.21;92.80
23433;BME280;41331;45.412;10.992;2023-08-06T01:03:08;99843.19;;;20.15;93.42
23433;BME280;41331;45.412;10.992;2023-08-06T01:05:36;99838.34;;;20.26;92.90
23433;BME280;41331;45.412;10.992;2023-08-06T01:11:15;99831.28;;;20.22;93.17
23433;BME280;41331;45.412;10.992;2023-08-06T01:13:47;99832.84;;;20.23;93.21
23433;BME280;41331;45.412;10.992;2023-08-06T01:16:19;99823.69;;;20.33;92.70
23433;BME280;41331;45.412;10.992;2023-08-06T01:18:50;99824.06;;;20.35;93.01
23433;BME280;41331;45.412;10.992;2023-08-06T01:21:19;99824.19;;;20.21;92.62
23433;BME280;41331;45.412;10.992;2023-08-06T01:23:46;99826.06;;;20.34;92.44
23433;BME280;41331;45.412;10.992;2023-08-06T01:26:32;99819.44;;;20.21;92.95
23433;BME280;41331;45.412;10.992;2023-08-06T01:29:15;99824.88;;;20.32;92.56
23433;BME280;41331;45.412;10.992;2023-08-06T01:31:48;99824.50;;;20.33;92.85
23433;BME280;41331;45.412;10.992;2023-08-06T01:34:18;99823.66;;;20.36;92.88
23433;BME280;41331;45.412;10.992;2023-08-06T01:36:50;99822.16;;;20.28;93.02
23433;BME280;41331;45.412;10.992;2023-08-06T01:39:17;99828.44;;;20.32;92.67
23433;BME280;41331;45.412;10.992;2023-08-06T01:41:48;99824.06;;;20.35;92.66
23433;BME280;41331;45.412;10.992;2023-08-06T01:44:16;99826.94;;;20.24;93.44
23433;BME280;41331;45.412;10.992;2023-08-06T01:46:44;99824.50;;;20.30;92.96
23433;BME280;41331;45.412;10.992;2023-08-06T01:49:11;99821.09;;;20.15;93.06
23433;BME280;41331;45.412;10.992;2023-08-06T01:51:39;99815.66;;;20.04;93.20
23433;BME280;41331;45.412;10.992;2023-08-06T01:54:06;99818.38;;;20.08;93.44
23433;BME280;41331;45.412;10.992;2023-08-06T01:56:34;99810.03;;;20.15;93.04
23433;BME280;41331;45.412;10.992;2023-08-06T01:59:01;99802.09;;;20.21;93.30
23433;BME280;41331;45.412;10.992;2023-08-06T02:01:31;99802.47;;;20.23;92.54
23433;BME280;41331;45.412;10.992;2023-08-06T02:03:59;99796.91;;;20.26;92.35
23433;BME280;41331;45.412;10.992;2023-08-06T02:06:26;99801.22;;;20.31;92.50
23433;BME280;41331;45.412;10.992;2023-08-06T02:08:55;99796.03;;;20.36;93.05
23433;BME280;41331;45.412;10.992;2023-08-06T02:11:22;99794.44;;;20.35;93.27
23433;BME280;41331;45.412;10.992;2023-08-06T02:13:49;99795.03;;;20.16;93.63
23433;BME280;41331;45.412;10.992;2023-08-06T02:16:18;99793.47;;;20.15;93.48
23433;BME280;41331;45.412;10.992;2023-08-06T02:18:46;99789.59;;;20.05;93.92
23433;BME280;41331;45.412;10.992;2023-08-06T02:21:24;99788.00;;;20.08;93.28
23433;BME280;41331;45.412;10.992;2023-08-06T02:23:53;99772.94;;;20.12;93.30
23433;BME280;41331;45.412;10.992;2023-08-06T02:26:20;99778.81;;;20.18;92.89
23433;BME280;41331;45.412;10.992;2023-08-06T02:28:48;99775.78;;;20.09;93.03
23433;BME280;41331;45.412;10.992;2023-08-06T02:31:15;99773.34;;;20.14;92.91
23433;BME280;41331;45.412;10.992;2023-08-06T02:33:43;99776.16;;;20.07;93.37
23433;BME280;41331;45.412;10.992;2023-08-06T02:36:10;99775.06;;;19.98;93.74
23433;BME280;41331;45.412;10.992;2023-08-06T02:38:38;99777.44;;;19.99;93.72
23433;BME280;41331;45.412;10.992;2023-08-06T02:41:06;99771.56;;;19.94;94.54
23433;BME280;41331;45.412;10.992;2023-08-06T02:43:33;99756.78;;;20.14;93.31
23433;BME280;41331;45.412;10.992;2023-08-06T02:46:01;99750.41;;;20.17;93.39
23433;BME280;41331;45.412;10.992;2023-08-06T02:48:29;99746.47;;;20.18;93.72
23433;BME280;41331;45.412;10.992;2023-08-06T02:50:57;99746.47;;;20.18;93.68
23433;BME280;41331;45.412;10.992;2023-08-06T02:53:30;99748.63;;;20.00;94.02
23433;BME280;41331;45.412;10.992;2023-08-06T02:56:02;99753.72;;;20.02;94.40
23433;BME280;41331;45.412;10.992;2023-08-06T02:58:44;99740.66;;;20.06;95.42
23433;BME280;41331;45.412;10.992;2023-08-06T03:01:26;99734.25;;;20.16;95.56
23433;BME280;41331;45.412;10.992;2023-08-06T03:04:01;99737.00;;;20.16;96.93
23433;BME280;41331;45.412;10.992;2023-08-06T03:06:34;99743.84;;;20.04;97.89
23433;BME280;41331;45.412;10.992;2023-08-06T03:09:03;99730.75;;;20.12;100.00
23433;BME280;41331;45.412;10.992;2023-08-06T03:11:30;99725.28;;;20.08;100.00
23433;BME280;41331;45.412;10.992;2023-08-06T03:14:04;99730.06;;;20.01;100.00
23433;BME280;41331;45.412;10.992;2023-08-06T03:16:32;99736.06;;;19.92;100.00
23433;BME280;41331;45.412;10.992;2023-08-06T03:19:00;99727.31;;;19.97;100.00
23433;BME280;41331;45.412;10.992;2023-08-06T03:21:28;99711.97;;;19.96;100.00
23433;BME280;41331;45.412;10.992;2023-08-06T03:23:57;99711.16;;;19.99;100.00
23433;BME280;41331;45.412;10.992;2023-08-06T03:26:29;99710.38;;;19.99;100.00
23433;BME280;41331;45.412;10.992;2023-08-06T03:28:57;99707.84;;;20.11;100.00
23433;BME280;41331;45.412;10.992;2023-08-06T03:31:25;99724.44;;;20.11;100.00
23433;BME280;41331;45.412;10.992;2023-08-06T03:33:53;99725.78;;;19.92;100.00
23433;BME280;41331;45.412;10.992;2023-08-06T03:36:24;99727.78;;;19.92;100.00
23433;BME280;41331;45.412;10.992;2023-08-06T03:38:52;99718.22;;;20.00;100.00
23433;BME280;41331;45.412;10.992;2023-08-06T03:41:20;99712.78;;;19.93;100.00
23433;BME280;41331;45.412;10.992;2023-08-06T03:43:48;99711.53;;;19.98;100.00
23433;BME280;41331;45.412;10.992;2023-08-06T03:46:22;99713.91;;;19.99;100.00
23433;BME280;41331;45.412;10.992;2023-08-06T03:48:49;99716.81;;;19.85;100.00
23433;BME280;41331;45.412;10.992;2023-08-06T03:51:16;99718.38;;;19.82;100.00
23433;BME280;41331;45.412;10.992;2023-08-06T03:53:47;99715.63;;;19.82;100.00
23433;BME280;41331;45.412;10.992;2023-08-06T03:56:15;99714.75;;;19.92;100.00
23433;BME280;41331;45.412;10.992;2023-08-06T03:58:42;99707.28;;;19.89;100.00
23433;BME280;41331;45.412;10.992;2023-08-06T04:01:10;99700.78;;;19.65;100.00
23433;BME280;41331;45.412;10.992;2023-08-06T04:03:45;99701.53;;;19.73;100.00
23433;BME280;41331;45.412;10.992;2023-08-06T04:06:13;99695.28;;;19.62;100.00
23433;BME280;41331;45.412;10.992;2023-08-06T04:08:40;99696.41;;;19.72;100.00
23433;BME280;41331;45.412;10.992;2023-08-06T04:11:07;99699.50;;;19.77;100.00
23433;BME280;41331;45.412;10.992;2023-08-06T04:13:35;99694.81;;;19.74;100.00
23433;BME280;41331;45.412;10.992;2023-08-06T04:16:03;99694.84;;;19.71;100.00
23433;BME280;41331;45.412;10.992;2023-08-06T04:18:32;99701.63;;;19.59;100.00
23433;BME280;41331;45.412;10.992;2023-08-06T04:21:01;99695.69;;;19.64;100.00
23433;BME280;41331;45.412;10.992;2023-08-06T04:23:28;99685.47;;;19.61;100.00
23433;BME280;41331;45.412;10.992;2023-08-06T04:26:00;99673.53;;;19.71;100.00
23433;BME280;41331;45.412;10.992;2023-08-06T04:28:32;99666.78;;;19.76;100.00
23433;BME280;41331;45.412;10.992;2023-08-06T04:31:00;99671.78;;;19.88;100.00
23433;BME280;41331;45.412;10.992;2023-08-06T04:33:31;99680.81;;;19.92;100.00
23433;BME280;41331;45.412;10.992;2023-08-06T04:36:03;99683.66;;;19.88;100.00
23433;BME280;41331;45.412;10.992;2023-08-06T04:38:30;99678.94;;;19.85;100.00
23433;BME280;41331;45.412;10.992;2023-08-06T04:40:58;99676.59;;;19.84;100.00
23433;BME280;41331;45.412;10.992;2023-08-06T04:43:28;99681.84;;;19.67;100.00
23433;BME280;41331;45.412;10.992;2023-08-06T04:45:56;99688.97;;;19.65;100.00
23433;BME280;41331;45.412;10.992;2023-08-06T04:48:26;99684.66;;;19.64;100.00
23433;BME280;41331;45.412;10.992;2023-08-06T04:50:54;99676.81;;;19.55;100.00
23433;BME280;41331;45.412;10.992;2023-08-06T04:53:22;99686.28;;;19.54;100.00
23433;BME280;41331;45.412;10.992;2023-08-06T04:55:49;99676.50;;;19.42;100.00
23433;BME280;41331;45.412;10.992;2023-08-06T04:58:16;99677.34;;;19.39;100.00
23433;BME280;41331;45.412;10.992;2023-08-06T05:00:44;99677.34;;;19.36;100.00
23433;BME280;41331;45.412;10.992;2023-08-06T05:03:11;99677.69;;;19.41;100.00
23433;BME280;41331;45.412;10.992;2023-08-06T05:05:40;99669.06;;;19.39;100.00
23433;BME280;41331;45.412;10.992;2023-08-06T05:08:14;99676.44;;;19.53;100.00
23433;BME280;41331;45.412;10.992;2023-08-06T05:10:44;99680.75;;;19.58;100.00
23433;BME280;41331;45.412;10.992;2023-08-06T05:13:12;99688.50;;;19.74;100.00
23433;BME280;41331;45.412;10.992;2023-08-06T05:15:41;99689.97;;;19.85;100.00
23433;BME280;41331;45.412;10.992;2023-08-06T05:18:10;99704.44;;;20.00;100.00
23433;BME280;41331;45.412;10.992;2023-08-06T05:20:42;99710.25;;;20.09;100.00
23433;BME280;41331;45.412;10.992;2023-08-06T05:23:09;99708.38;;;19.99;100.00
23433;BME280;41331;45.412;10.992;2023-08-06T05:25:38;99701.97;;;20.09;100.00
23433;BME280;41331;45.412;10.992;2023-08-06T05:28:05;99706.59;;;20.20;100.00
23433;BME280;41331;45.412;10.992;2023-08-06T05:30:33;99714.28;;;20.39;100.00
23433;BME280;41331;45.412;10.992;2023-08-06T05:33:00;99716.22;;;20.42;100.00
23433;BME280;41331;45.412;10.992;2023-08-06T05:35:28;99712.63;;;20.45;100.00
23433;BME280;41331;45.412;10.992;2023-08-06T05:37:55;99709.41;;;20.54;100.00
23433;BME280;41331;45.412;10.992;2023-08-06T05:40:22;99708.75;;;20.73;100.00
23433;BME280;41331;45.412;10.992;2023-08-06T05:42:53;99718.50;;;20.85;100.00
23433;BME280;41331;45.412;10.992;2023-08-06T05:45:21;99717.53;;;20.99;97.93
23433;BME280;41331;45.412;10.992;2023-08-06T05:47:49;99714.75;;;20.99;98.67
23433;BME280;41331;45.412;10.992;2023-08-06T05:50:17;99714.75;;;20.99;100.00
23433;BME280;41331;45.412;10.992;2023-08-06T05:52:44;99720.78;;;20.90;99.29
23433;BME280;41331;45.412;10.992;2023-08-06T05:55:12;99714.94;;;20.84;99.60
23433;BME280;41331;45.412;10.992;2023-08-06T05:57:39;99712.38;;;20.97;98.76
23433;BME280;41331;45.412;10.992;2023-08-06T06:00:07;99715.72;;;21.12;98.73
23433;BME280;41331;45.412;10.992;2023-08-06T06:02:41;99717.69;;;21.15;100.00
23433;BME280;41331;45.412;10.992;2023-08-06T06:05:08;99725.69;;;21.36;100.00
23433;BME280;41331;45.412;10.992;2023-08-06T06:07:36;99721.69;;;21.64;94.29
23433;BME280;41331;45.412;10.992;2023-08-06T06:10:03;99724.31;;;21.48;90.17
23433;BME280;41331;45.412;10.992;2023-08-06T06:12:31;99731.53;;;21.42;91.97
23433;BME280;41331;45.412;10.992;2023-08-06T06:14:58;99734.13;;;21.53;93.57
23433;BME280;41331;45.412;10.992;2023-08-06T06:17:28;99741.84;;;21.65;93.93
23433;BME280;41331;45.412;10.992;2023-08-06T06:19:56;99744.94;;;21.70;89.70
23433;BME280;41331;45.412;10.992;2023-08-06T06:22:23;99743.19;;;21.80;93.06
23433;BME280;41331;45.412;10.992;2023-08-06T06:24:51;99744.44;;;21.76;92.67
23433;BME280;41331;45.412;10.992;2023-08-06T06:27:18;99741.63;;;21.79;93.14
23433;BME280;41331;45.412;10.992;2023-08-06T06:29:46;99740.94;;;21.71;90.57
23433;BME280;41331;45.412;10.992;2023-08-06T06:32:13;99746.13;;;21.93;90.69
23433;BME280;41331;45.412;10.992;2023-08-06T06:34:40;99744.94;;;22.17;90.75
23433;BME280;41331;45.412;10.992;2023-08-06T06:37:08;99742.97;;;22.78;88.04
23433;BME280;41331;45.412;10.992;2023-08-06T06:39:35;99745.34;;;23.51;79.05
23433;BME280;41331;45.412;10.992;2023-08-06T06:42:03;99745.59;;;23.57;80.53
23433;BME280;41331;45.412;10.992;2023-08-06T06:44:37;99736.16;;;24.33;78.62
23433;BME280;41331;45.412;10.992;2023-08-06T06:47:05;99746.94;;;24.60;75.72
23433;BME280;41331;45.412;10.992;2023-08-06T06:49:32;99749.88;;;24.69;74.74
23433;BME280;41331;45.412;10.992;2023-08-06T06:52:00;99740.41;;;25.21;73.31
23433;BME280;41331;45.412;10.992;2023-08-06T06:54:27;99740.41;;;25.34;73.39
23433;BME280;41331;45.412;10.992;2023-08-06T06:56:55;99738.38;;;25.34;71.31
23433;BME280;41331;45.412;10.992;2023-08-06T06:59:22;99734.28;;;25.26;72.97
23433;BME280;41331;45.412;10.992;2023-08-06T07:01:49;99750.28;;;25.09;75.33
23433;BME280;41331;45.412;10.992;2023-08-06T07:04:17;99751.41;;;25.24;73.89
23433;BME280;41331;45.412;10.992;2023-08-06T07:06:45;99756.34;;;25.20;73.12
23433;BME280;41331;45.412;10.992;2023-08-06T07:09:13;99754.97;;;25.25;73.61
23433;BME280;41331;45.412;10.992;2023-08-06T07:11:40;99760.88;;;25.14;74.36
23433;BME280;41331;45.412;10.992;2023-08-06T07:14:10;99754.53;;;25.14;74.73
23433;BME280;41331;45.412;10.992;2023-08-06T07:16:38;99746.91;;;24.89;74.94
23433;BME280;41331;45.412;10.992;2023-08-06T07:19:05;99747.84;;;25.24;76.61
23433;BME280;41331;45.412;10.992;2023-08-06T07:21:33;99744.53;;;25.42;73.83
23433;BME280;41331;45.412;10.992;2023-08-06T07:24:00;99745.97;;;25.34;74.15
23433;BME280;41331;45.412;10.992;2023-08-06T07:26:28;99745.06;;;25.24;72.01
23433;BME280;41331;45.412;10.992;2023-08-06T07:28:55;99740.97;;;25.16;68.07
23433;BME280;41331;45.412;10.992;2023-08-06T07:31:23;99740.75;;;25.36;64.71
23433;BME280;41331;45.412;10.992;2023-08-06T07:33:50;99745.53;;;25.48;62.95
23433;BME280;41331;45.412;10.992;2023-08-06T07:36:18;99743.94;;;25.72;61.04
23433;BME280;41331;45.412;10.992;2023-08-06T07:38:45;99749.09;;;25.61;68.17
23433;BME280;41331;45.412;10.992;2023-08-06T07:41:13;99757.75;;;25.89;70.57
23433;BME280;41331;45.412;10.992;2023-08-06T07:43:40;99748.69;;;26.32;72.32
23433;BME280;41331;45.412;10.992;2023-08-06T07:46:09;99749.22;;;26.40;69.93
23433;BME280;41331;45.412;10.992;2023-08-06T07:48:37;99748.94;;;26.81;69.42
23433;BME280;41331;45.412;10.992;2023-08-06T07:51:04;99745.19;;;27.38;63.70
23433;BME280;41331;45.412;10.992;2023-08-06T07:53:32;99749.75;;;27.53;63.01
23433;BME280;41331;45.412;10.992;2023-08-06T07:56:00;99750.94;;;27.43;64.57
23433;BME280;41331;45.412;10.992;2023-08-06T07:58:29;99746.94;;;27.13;66.73
23433;BME280;41331;45.412;10.992;2023-08-06T08:00:57;99738.88;;;27.55;65.35
23433;BME280;41331;45.412;10.992;2023-08-06T08:03:24;99738.13;;;27.64;61.88
23433;BME280;41331;45.412;10.992;2023-08-06T08:05:54;99737.47;;;27.60;62.20
23433;BME280;41331;45.412;10.992;2023-08-06T08:08:25;99735.97;;;26.97;64.68
23433;BME280;41331;45.412;10.992;2023-08-06T08:10:52;99730.94;;;27.54;62.28
23433;BME280;41331;45.412;10.992;2023-08-06T08:13:20;99731.34;;;27.34;61.23
23433;BME280;41331;45.412;10.992;2023-08-06T08:15:47;99726.53;;;27.75;56.74
23433;BME280;41331;45.412;10.992;2023-08-06T08:18:14;99729.84;;;27.42;54.04
23433;BME280;41331;45.412;10.992;2023-08-06T08:20:43;99726.13;;;27.54;50.09
23433;BME280;41331;45.412;10.992;2023-08-06T08:23:11;99727.53;;;27.50;50.61
23433;BME280;41331;45.412;10.992;2023-08-06T08:25:41;99729.81;;;27.33;49.98
23433;BME280;41331;45.412;10.992;2023-08-06T08:28:08;99725.78;;;27.03;50.54
23433;BME280;41331;45.412;10.992;2023-08-06T08:30:36;99722.97;;;27.03;50.84
23433;BME280;41331;45.412;10.992;2023-08-06T08:33:03;99734.88;;;27.25;52.07
23433;BME280;41331;45.412;10.992;2023-08-06T08:35:30;99725.56;;;27.19;51.77
23433;BME280;41331;45.412;10.992;2023-08-06T08:37:58;99732.91;;;27.35;51.82
23433;BME280;41331;45.412;10.992;2023-08-06T08:40:31;99732.63;;;27.42;52.01
23433;BME280;41331;45.412;10.992;2023-08-06T08:43:00;99738.72;;;27.59;52.55
23433;BME280;41331;45.412;10.992;2023-08-06T08:45:29;99736.63;;;27.72;53.36
23433;BME280;41331;45.412;10.992;2023-08-06T08:47:57;99731.69;;;27.95;51.70
23433;BME280;41331;45.412;10.992;2023-08-06T08:50:25;99735.63;;;27.57;53.31
23433;BME280;41331;45.412;10.992;2023-08-06T08:52:52;99742.53;;;26.37;57.54
23433;BME280;41331;45.412;10.992;2023-08-06T08:55:21;99741.84;;;26.68;56.79
23433;BME280;41331;45.412;10.992;2023-08-06T08:57:49;99742.59;;;26.90;55.25
23433;BME280;41331;45.412;10.992;2023-08-06T09:00:16;99742.16;;;27.63;53.98
23433;BME280;41331;45.412;10.992;2023-08-06T09:02:45;99746.91;;;27.94;54.55
23433;BME280;41331;45.412;10.992;2023-08-06T09:05:14;99739.16;;;28.16;52.12
23433;BME280;41331;45.412;10.992;2023-08-06T09:07:43;99740.53;;;28.21;52.26
23433;BME280;41331;45.412;10.992;2023-08-06T09:10:14;99752.06;;;28.13;51.88
23433;BME280;41331;45.412;10.992;2023-08-06T09:12:45;99756.56;;;28.02;51.93
23433;BME280;41331;45.412;10.992;2023-08-06T09:15:14;99759.47;;;27.89;51.07
23433;BME280;41331;45.412;10.992;2023-08-06T09:17:41;99748.16;;;28.11;51.93
23433;BME280;41331;45.412;10.992;2023-08-06T09:20:12;99757.16;;;28.06;51.90
23433;BME280;41331;45.412;10.992;2023-08-06T09:22:40;99765.44;;;28.46;50.77
23433;BME280;41331;45.412;10.992;2023-08-06T09:25:08;99761.09;;;28.45;49.27
23433;BME280;41331;45.412;10.992;2023-08-06T09:27:46;99764.50;;;28.58;48.80
23433;BME280;41331;45.412;10.992;2023-08-06T09:30:31;99765.78;;;28.39;49.10
23433;BME280;41331;45.412;10.992;2023-08-06T09:32:59;99778.06;;;28.42;49.02
23433;BME280;41331;45.412;10.992;2023-08-06T09:35:31;99779.28;;;28.59;48.85
23433;BME280;41331;45.412;10.992;2023-08-06T09:38:06;99761.72;;;28.22;48.34
23433;BME280;41331;45.412;10.992;2023-08-06T09:40:38;99766.84;;;28.32;48.76
23433;BME280;41331;45.412;10.992;2023-08-06T09:43:06;99760.16;;;28.57;47.51
23433;BME280;41331;45.412;10.992;2023-08-06T09:45:37;99764.66;;;28.55;47.80
23433;BME280;41331;45.412;10.992;2023-08-06T09:48:07;99758.38;;;29.06;47.77
23433;BME280;41331;45.412;10.992;2023-08-06T09:50:37;99757.28;;;29.12;45.40
23433;BME280;41331;45.412;10.992;2023-08-06T09:53:07;99760.94;;;29.28;44.94
23433;BME280;41331;45.412;10.992;2023-08-06T09:55:36;99761.50;;;28.89;46.46
23433;BME280;41331;45.412;10.992;2023-08-06T09:58:04;99766.03;;;28.78;46.97
23433;BME280;41331;45.412;10.992;2023-08-06T10:00:33;99773.31;;;28.94;45.81
23433;BME280;41331;45.412;10.992;2023-08-06T10:03:06;99767.25;;;29.04;45.72
23433;BME280;41331;45.412;10.992;2023-08-06T10:05:36;99762.53;;;29.20;45.22
23433;BME280;41331;45.412;10.992;2023-08-06T10:08:05;99761.84;;;29.34;45.28
23433;BME280;41331;45.412;10.992;2023-08-06T10:10:34;99764.84;;;29.21;45.16
23433;BME280;41331;45.412;10.992;2023-08-06T10:13:04;99756.28;;;29.25;43.85
23433;BME280;41331;45.412;10.992;2023-08-06T10:15:33;99759.44;;;29.51;45.25
23433;BME280;41331;45.412;10.992;2023-08-06T10:18:05;99757.94;;;29.40;44.72
23433;BME280;41331;45.412;10.992;2023-08-06T10:20:34;99759.41;;;29.60;45.14
23433;BME280;41331;45.412;10.992;2023-08-06T10:23:04;99759.22;;;29.73;44.99
23433;BME280;41331;45.412;10.992;2023-08-06T10:25:40;99759.72;;;30.10;44.50
23433;BME280;41331;45.412;10.992;2023-08-06T10:28:09;99769.88;;;29.50;46.22
23433;BME280;41331;45.412;10.992;2023-08-06T10:30:47;99760.16;;;29.70;44.83
23433;BME280;41331;45.412;10.992;2023-08-06T10:33:15;99762.78;;;29.31;45.37
23433;BME280;41331;45.412;10.992;2023-08-06T10:35:47;99752.69;;;29.66;45.11
23433;BME280;41331;45.412;10.992;2023-08-06T10:38:21;99751.94;;;29.57;47.18
23433;BME280;41331;45.412;10.992;2023-08-06T10:43:28;99746.69;;;29.83;45.76
23433;BME280;41331;45.412;10.992;2023-08-06T10:45:57;99751.94;;;30.14;45.49
23433;BME280;41331;45.412;10.992;2023-08-06T10:48:45;99749.72;;;30.18;45.69
23433;BME280;41331;45.412;10.992;2023-08-06T10:51:14;99750.81;;;30.35;47.23
23433;BME280;41331;45.412;10.992;2023-08-06T10:53:44;99762.66;;;30.15;45.08
23433;BME280;41331;45.412;10.992;2023-08-06T10:56:16;99760.75;;;29.98;46.54
23433;BME280;41331;45.412;10.992;2023-08-06T10:58:46;99757.16;;;30.21;46.47
23433;BME280;41331;45.412;10.992;2023-08-06T11:01:14;99755.66;;;30.11;46.04
23433;BME280;41331;45.412;10.992;2023-08-06T11:03:44;99753.31;;;29.61;46.10
23433;BME280;41331;45.412;10.992;2023-08-06T11:06:20;99752.69;;;30.38;45.75
23433;BME280;41331;45.412;10.992;2023-08-06T11:08:52;99754.50;;;30.41;46.82
23433;BME280;41331;45.412;10.992;2023-08-06T11:11:23;99748.13;;;30.41;44.31
23433;BME280;41331;45.412;10.992;2023-08-06T11:13:51;99756.03;;;30.28;44.52
23433;BME280;41331;45.412;10.992;2023-08-06T11:16:23;99739.31;;;30.33;44.27
23433;BME280;41331;45.412;10.992;2023-08-06T11:18:52;99740.22;;;30.69;44.03
23433;BME280;41331;45.412;10.992;2023-08-06T11:21:22;99734.28;;;30.67;44.76
23433;BME280;41331;45.412;10.992;2023-08-06T11:23:52;99732.66;;;30.60;44.76
23433;BME280;41331;45.412;10.992;2023-08-06T11:26:21;99728.66;;;30.67;43.85
23433;BME280;41331;45.412;10.992;2023-08-06T11:28:50;99727.31;;;30.62;43.65
23433;BME280;41331;45.412;10.992;2023-08-06T11:31:21;99717.75;;;30.54;43.72
23433;BME280;41331;45.412;10.992;2023-08-06T11:33:52;99721.13;;;30.43;41.83
23433;BME280;41331;45.412;10.992;2023-08-06T11:36:34;99713.09;;;30.51;41.33
23433;BME280;41331;45.412;10.992;2023-08-06T11:39:03;99716.16;;;30.24;41.25
23433;BME280;41331;45.412;10.992;2023-08-06T11:41:34;99713.25;;;30.18;40.57
23433;BME280;41331;45.412;10.992;2023-08-06T11:44:03;99708.41;;;30.18;40.59
23433;BME280;41331;45.412;10.992;2023-08-06T11:46:49;99709.09;;;30.28;39.85
23433;BME280;41331;45.412;10.992;2023-08-06T11:49:17;99706.72;;;30.80;40.00
23433;BME280;41331;45.412;10.992;2023-08-06T11:51:48;99715.34;;;30.77;39.37
23433;BME280;41331;45.412;10.992;2023-08-06T11:54:15;99713.97;;;30.42;39.58
23433;BME280;41331;45.412;10.992;2023-08-06T11:56:43;99703.25;;;30.85;37.84
23433;BME280;41331;45.412;10.992;2023-08-06T11:59:13;99708.41;;;31.22;38.56
23433;BME280;41331;45.412;10.992;2023-08-06T12:01:40;99715.75;;;31.49;37.83
23433;BME280;41331;45.412;10.992;2023-08-06T12:04:08;99719.06;;;31.68;37.58
23433;BME280;41331;45.412;10.992;2023-08-06T12:06:42;99719.22;;;32.20;37.36
23433;BME280;41331;45.412;10.992;2023-08-06T12:09:10;99710.75;;;31.59;37.00
23433;BME280;41331;45.412;10.992;2023-08-06T12:11:38;99721.25;;;31.79;36.24
23433;BME280;41331;45.412;10.992;2023-08-06T12:14:08;99720.97;;;31.41;36.60
23433;BME280;41331;45.412;10.992;2023-08-06T12:16:35;99734.03;;;31.59;37.97
23433;BME280;41331;45.412;10.992;2023-08-06T12:19:03;99723.44;;;31.19;36.63
23433;BME280;41331;45.412;10.992;2023-08-06T12:21:31;99727.03;;;31.34;36.25
23433;BME280;41331;45.412;10.992;2023-08-06T12:23:58;99722.34;;;32.28;36.76
23433;BME280;41331;45.412;10.992;2023-08-06T12:26:26;99714.50;;;31.91;35.71
23433;BME280;41331;45.412;10.992;2023-08-06T12:28:53;99722.41;;;31.52;36.17
23433;BME280;41331;45.412;10.992;2023-08-06T12:31:22;99719.09;;;31.88;35.05
23433;BME280;41331;45.412;10.992;2023-08-06T12:33:49;99724.91;;;32.05;36.99
23433;BME280;41331;45.412;10.992;2023-08-06T12:36:17;99738.84;;;32.14;35.50
23433;BME280;41331;45.412;10.992;2023-08-06T12:38:44;99736.50;;;32.54;35.66
23433;BME280;41331;45.412;10.992;2023-08-06T12:41:12;99738.41;;;31.81;34.31
23433;BME280;41331;45.412;10.992;2023-08-06T12:43:39;99735.84;;;31.62;35.49
23433;BME280;41331;45.412;10.992;2023-08-06T12:46:06;99747.56;;;32.16;36.64
23433;BME280;41331;45.412;10.992;2023-08-06T12:48:34;99745.13;;;32.04;35.08
23433;BME280;41331;45.412;10.992;2023-08-06T12:51:01;99748.00;;;31.89;34.68
23433;BME280;41331;45.412;10.992;2023-08-06T12:53:29;99754.34;;;30.60;34.20
23433;BME280;41331;45.412;10.992;2023-08-06T12:55:56;99742.41;;;30.50;35.05
23433;BME280;41331;45.412;10.992;2023-08-06T12:58:24;99746.53;;;30.01;35.54
23433;BME280;41331;45.412;10.992;2023-08-06T13:00:51;99746.13;;;29.70;35.39
23433;BME280;41331;45.412;10.992;2023-08-06T13:03:18;99746.09;;;29.36;35.47